Latest Weather Observations for Tasman Island

IDT60801

Issued at 11:02 pm EDT Tuesday 28 February 2017 (issued every 30 minutes, with the page automatically refreshed every 10 minutes)

About weather observations | Map of weather stations | Latest weather observations for TAS | Other Formats
Station Details ID: 094155 Name: TASMAN ISLAND Lat: -43.24 Lon: 148.00 Height: 240.0 m
Data from the previous 72 hours. | See also: Recent months at Tasman Island
Date/Time
EDT
Temp
°C
App
Temp
°C
Dew
Point
°C
Rel
Hum
%
Delta-T
°C
Wind Press
QNH
hPa
Press
MSL
hPa
Rain since
9am
mm
Dir  Spd
km/h
Gust
km/h
Spd
kts
Gust
kts
28/11:00pm 19.2 18.9 12.7 66 3.7 SW 6 7 3 4 1022.9 1022.7 -
28/10:30pm 19.4 19.6 12.9 66 3.7 SSW 4 6 2 3 1023.0 1022.8 -
28/10:00pm 19.5 20.1 13.2 67 3.6 WSW 2 6 1 3 1023.0 1022.8 -
28/09:30pm 19.8 19.5 12.8 64 4.0 NNE 6 7 3 4 1023.0 1022.8 -
28/09:00pm 19.9 19.9 13.6 67 3.6 NNW 6 7 3 4 1023.0 1022.8 -
28/08:30pm 18.9 - 14.6 76 2.5 - - - - - 1023.0 1022.8 -
28/08:00pm 18.9 17.4 15.2 79 2.2 NNE 17 19 9 10 1022.5 1022.3 -
28/07:30pm 18.6 17.7 15.8 84 1.7 NE 15 19 8 10 1022.5 1022.3 -
28/07:00pm 18.3 17.9 16.1 87 1.3 NNE 13 17 7 9 1022.2 1022.0 -
28/06:30pm 18.8 18.3 16.0 84 1.7 NNE 13 19 7 10 1022.3 1022.1 -
28/06:00pm 19.6 18.6 15.7 78 2.3 NNE 15 19 8 10 1022.2 1022.0 -
28/05:30pm 20.1 19.8 15.5 75 2.8 NNE 11 17 6 9 1022.2 1022.0 -
28/05:00pm 20.5 - 15.5 73 3.0 - - - - - 1022.3 1022.1 -
28/04:30pm 19.9 18.4 15.3 75 2.7 NNE 17 24 9 13 1022.4 1022.2 0.0
28/04:00pm 21.2 20.1 15.3 69 3.5 NNE 15 22 8 12 1022.5 1022.3 0.0
28/03:30pm 20.7 19.1 15.0 70 3.4 NNE 17 26 9 14 1022.5 1022.3 0.0
28/03:00pm 20.9 19.0 15.2 70 3.4 N 19 26 10 14 1022.7 1022.5 0.0
28/02:30pm 21.6 18.9 14.5 64 4.2 N 22 33 12 18 1022.9 1022.7 0.0
28/02:00pm 20.3 17.9 14.4 69 3.5 N 20 30 11 16 1022.9 1022.7 0.0
28/01:30pm 20.6 - 13.3 63 4.2 - - - - - 1023.0 1022.8 0.0
28/01:00pm 20.8 16.3 12.5 59 4.7 N 28 33 15 18 1023.3 1023.0 0.0
28/12:30pm 20.6 16.5 12.6 60 4.6 N 26 33 14 18 1023.4 1023.1 0.0
28/12:00pm 20.7 16.8 12.1 58 4.8 N 24 33 13 18 1023.5 1023.2 0.0
28/11:30am 19.9 17.0 12.4 62 4.3 N 19 30 10 16 1023.6 1023.3 0.0
28/11:00am 19.6 16.1 12.1 62 4.2 N 22 32 12 17 1023.7 1023.4 0.0
28/10:30am 18.5 13.4 11.8 65 3.7 N 30 37 16 20 1023.5 1023.2 0.0
28/10:00am 18.0 14.2 11.3 65 3.7 NNE 22 33 12 18 1023.6 1023.3 0.0
28/09:30am 17.7 14.6 11.5 67 3.4 N 19 32 10 17 1023.6 1023.3 0.0
28/09:00am 17.0 13.2 11.3 69 3.1 N 22 35 12 19 1023.6 1023.3 0.0
28/08:30am 16.3 12.8 11.0 71 2.9 N 20 32 11 17 1023.5 1023.2 0.0
28/08:00am 15.8 11.6 11.0 73 2.6 N 24 35 13 19 1023.5 1023.2 0.0
28/07:30am 15.1 11.0 11.3 78 2.1 N 24 37 13 20 1023.3 1023.0 0.0
28/07:00am 14.9 10.8 11.3 79 1.9 N 24 37 13 20 1023.0 1022.8 0.0
28/06:30am 15.1 10.0 10.5 74 2.5 N 28 37 15 20 1022.8 1022.6 0.0
28/06:00am 15.0 10.4 11.0 77 2.1 N 26 35 14 19 1022.9 1022.7 0.0
28/05:30am 14.8 11.8 12.5 86 1.3 NNE 20 28 11 15 1023.0 1022.8 0.0
28/05:00am 14.8 11.8 12.5 86 1.3 N 20 30 11 16 1023.3 1023.0 0.0
28/04:30am 15.1 9.6 12.6 85 1.4 N 33 43 18 23 1023.2 1022.9 0.0
28/04:00am 15.6 11.1 12.5 82 1.7 N 28 41 15 22 1023.3 1023.0 0.0
28/03:30am 15.8 9.9 12.4 80 1.9 N 35 46 19 25 1023.3 1023.0 0.0
28/03:00am 16.1 9.5 12.5 79 2.0 N 39 50 21 27 1023.4 1023.1 0.0
28/02:30am 16.1 8.2 12.7 80 1.9 N 46 54 25 29 1023.3 1023.0 0.0
28/02:00am 16.1 7.9 12.8 81 1.8 N 48 59 26 32 1023.4 1023.1 0.0
28/01:30am 16.1 7.9 12.8 81 1.8 N 48 57 26 31 1023.6 1023.3 0.0
28/01:00am 16.1 8.3 13.0 82 1.7 N 46 57 25 31 1023.7 1023.4 0.0
28/12:30am 15.9 7.8 13.2 84 1.5 N 48 61 26 33 1023.6 1023.3 0.0
28/12:00am 15.8 8.8 13.8 88 1.1 N 43 54 23 29 1023.7 1023.4 0.0
 
Date/Time
EDT
Temp
°C
App
Temp
°C
Dew
Point
°C
Rel
Hum
%
Delta-T
°C
Wind Press
QNH
hPa
Press
MSL
hPa
Rain since
9am
mm
Dir  Spd
km/h
Gust
km/h
Spd
kts
Gust
kts
27/11:30pm 15.8 8.6 13.8 88 1.1 N 44 56 24 30 1023.9 1023.6 0.0
27/11:00pm 15.8 8.0 14.0 89 1.0 N 48 59 26 32 1024.0 1023.7 0.0
27/10:30pm 15.9 8.2 14.3 90 0.9 NNE 48 65 26 35 1024.3 1024.0 0.0
27/10:00pm 16.0 7.8 14.2 89 1.0 NNE 50 65 27 35 1024.3 1024.0 0.0
27/09:30pm 16.1 7.6 14.3 89 1.0 NNE 52 67 28 36 1024.2 1023.9 0.0
27/09:00pm 16.1 8.0 14.5 90 0.9 NNE 50 67 27 36 1024.2 1023.9 0.0
27/08:30pm 16.1 6.7 13.9 87 1.3 NNE 56 70 30 38 1024.1 1023.8 0.0
27/08:00pm 16.2 6.5 13.1 82 1.7 NNE 56 69 30 37 1024.0 1023.7 0.0
27/07:30pm 16.2 6.9 12.9 81 1.9 NNE 54 67 29 36 1023.9 1023.6 0.0
27/07:07pm 16.4 7.5 13.1 81 1.9 NNE 52 70 28 38 1023.8 1023.5 0.0
27/07:00pm 16.4 7.9 13.1 81 1.9 NNE 50 67 27 36 1023.9 1023.6 0.0
27/06:30pm 16.6 8.1 13.1 80 2.0 NNE 50 69 27 37 1024.0 1023.7 0.0
27/06:11pm 16.8 8.3 13.1 79 2.1 NNE 50 70 27 38 1024.0 1023.7 0.0
27/06:00pm 16.9 8.0 13.2 79 2.1 NNE 52 70 28 38 1024.0 1023.7 0.0
27/05:35pm 17.1 9.1 13.4 79 2.1 NNE 48 67 26 36 1024.1 1023.8 0.0
27/05:30pm 17.2 9.1 13.3 78 2.2 NNE 48 67 26 36 1024.1 1023.8 0.0
27/05:17pm 17.4 9.3 13.1 76 2.4 NNE 48 69 26 37 1024.2 1023.9 0.0
27/05:00pm 17.4 9.3 13.1 76 2.4 NNE 48 65 26 35 1024.3 1024.0 0.0
27/04:35pm 17.7 10.3 13.2 75 2.6 NNE 44 63 24 34 1024.5 1024.2 0.0
27/04:30pm 17.6 9.8 13.1 75 2.6 NNE 46 63 25 34 1024.5 1024.2 0.0
27/04:04pm 17.9 10.7 13.6 76 2.5 NNE 44 65 24 35 1024.6 1024.3 0.0
27/04:00pm 17.8 10.2 13.7 77 2.3 NNE 46 65 25 35 1024.6 1024.3 0.0
27/03:30pm 17.9 9.5 13.4 75 2.6 NNE 50 65 27 35 1024.7 1024.4 0.0
27/03:00pm 17.7 9.9 13.0 74 2.7 NNE 46 59 25 32 1025.1 1024.8 0.0
27/02:30pm 17.8 10.5 12.9 73 2.8 NNE 43 57 23 31 1025.5 1025.3 0.0
27/02:00pm 17.5 9.8 12.0 70 3.0 NNE 44 59 24 32 1025.6 1025.4 0.0
27/01:30pm 17.2 9.8 12.3 73 2.7 NNE 43 56 23 30 1025.8 1025.6 0.0
27/01:00pm 17.3 10.2 12.2 72 2.8 NNE 41 56 22 30 1025.9 1025.7 0.0
27/12:30pm 17.4 9.6 11.2 67 3.4 NNE 43 54 23 29 1026.1 1025.9 0.0
27/12:00pm 17.2 9.4 11.0 67 3.4 NNE 43 54 23 29 1026.2 1026.0 0.0
27/11:30am 17.8 9.3 8.4 54 4.9 NNE 43 52 23 28 1026.4 1026.2 0.0
27/11:00am 16.8 9.4 9.7 63 3.7 NNE 39 52 21 28 1026.5 1026.3 0.0
27/10:30am 16.6 10.6 10.2 66 3.4 NNE 32 44 17 24 1026.6 1026.4 0.0
27/10:00am 16.4 10.0 9.3 63 3.7 NNE 33 46 18 25 1026.6 1026.4 0.0
27/09:30am 16.6 9.2 8.3 58 4.3 NNE 37 48 20 26 1026.5 1026.3 0.0
27/09:00am 16.4 11.4 8.1 58 4.2 NNE 24 39 13 21 1026.9 1026.7 -
27/08:30am 15.5 11.3 9.6 68 3.1 NNE 22 35 12 19 1026.8 1026.6 -
27/08:00am 14.9 10.2 10.7 76 2.2 N 26 35 14 19 1026.6 1026.4 -
27/07:30am 14.5 11.0 10.1 75 2.3 N 19 26 10 14 1026.7 1026.5 -
27/07:00am 14.1 11.2 9.5 74 2.4 N 15 20 8 11 1026.6 1026.4 -
27/06:30am 14.2 10.1 8.8 70 2.8 N 20 26 11 14 1026.2 1026.0 -
27/06:00am 14.2 10.1 8.8 70 2.7 N 20 26 11 14 1026.0 1025.8 -
27/05:30am 14.5 9.7 8.7 68 3.0 N 24 32 13 17 1025.7 1025.5 -
27/05:00am 14.3 10.0 9.5 73 2.5 N 22 28 12 15 1025.6 1025.4 -
27/04:30am 14.2 11.2 10.6 79 1.9 N 17 26 9 14 1025.6 1025.4 -
27/04:00am 14.2 10.9 11.5 84 1.5 N 20 28 11 15 1025.6 1025.4 -
27/03:30am 14.2 9.7 11.5 84 1.5 N 26 37 14 20 1025.6 1025.4 -
27/03:00am 14.3 10.2 11.6 84 1.5 N 24 33 13 18 1025.6 1025.4 0.0
27/02:30am 14.3 11.1 11.8 85 1.4 N 20 33 11 18 1025.5 1025.3 -
27/02:00am 14.3 11.6 11.6 84 1.5 N 17 28 9 15 1025.8 1025.6 -
27/01:30am 14.5 9.7 11.7 83 1.5 N 28 35 15 19 1025.7 1025.5 -
27/01:00am 14.4 11.3 12.1 86 1.3 NNE 20 28 11 15 1025.9 1025.7 -
27/12:30am 14.5 10.6 12.2 86 1.3 NNE 24 32 13 17 1026.0 1025.8 -
27/12:00am 14.7 9.3 12.2 85 1.4 NNE 32 44 17 24 1026.2 1026.0 -
 
Date/Time
EDT
Temp
°C
App
Temp
°C
Dew
Point
°C
Rel
Hum
%
Delta-T
°C
Wind Press
QNH
hPa
Press
MSL
hPa
Rain since
9am
mm
Dir  Spd
km/h
Gust
km/h
Spd
kts
Gust
kts
26/11:30pm 14.8 9.3 12.3 85 1.4 NNE 33 43 18 23 1026.3 1026.1 -
26/11:00pm 14.8 8.7 11.8 82 1.6 NNE 35 44 19 24 1026.4 1026.2 -
26/10:30pm 14.7 8.1 11.3 80 1.8 NNE 37 48 20 26 1026.5 1026.3 -
26/10:00pm 14.8 7.9 11.6 81 1.7 NNE 39 48 21 26 1026.4 1026.2 -
26/09:30pm 14.7 8.5 11.5 81 1.7 NNE 35 50 19 27 1026.4 1026.2 -
26/09:00pm 14.8 8.1 11.0 78 2.0 NNE 37 48 20 26 1026.2 1026.0 0.0
26/08:30pm 14.7 8.4 11.1 79 1.9 NNE 35 46 19 25 1025.9 1025.7 -
26/08:00pm 14.8 9.1 11.2 79 1.9 NNE 32 43 17 23 1025.9 1025.7 -
26/07:30pm 15.1 9.9 11.5 79 2.0 NNE 30 41 16 22 1025.8 1025.6 -
26/07:00pm 15.2 10.3 11.4 78 2.1 NNE 28 43 15 23 1025.6 1025.4 -
26/06:30pm 15.6 10.8 11.6 77 2.2 NNE 28 41 15 22 1025.4 1025.2 -
26/06:00pm 15.8 10.5 11.2 74 2.5 NNE 30 37 16 20 1025.2 1025.0 -
26/05:30pm 16.2 10.9 11.2 72 2.7 NNE 30 37 16 20 1025.0 1024.7 -
26/05:00pm 16.4 11.0 10.9 70 3.0 NNE 30 37 16 20 1025.2 1025.0 -
26/04:30pm 16.6 11.6 10.9 69 3.1 NNE 28 37 15 20 1025.2 1025.0 -
26/04:00pm 17.1 13.7 10.5 65 3.5 NE 19 28 10 15 1025.3 1025.1 -
26/03:30pm 17.1 13.5 10.7 66 3.5 NE 20 28 11 15 1025.5 1025.3 -
26/03:00pm 16.9 13.9 9.1 60 4.1 NE 15 30 8 16 1025.7 1025.5 -
26/02:30pm 17.1 - 9.8 62 3.9 - - - - - 1025.9 1025.7 -
26/02:00pm 16.7 14.3 9.9 64 3.6 E 13 20 7 11 1026.0 1025.8 0.0
26/01:30pm 16.1 13.8 9.1 63 3.7 E 11 15 6 8 1026.0 1025.8 0.0
26/01:00pm 16.5 14.7 8.0 57 4.3 E 7 13 4 7 1026.2 1026.0 0.0
26/12:30pm 16.1 14.0 8.3 60 4.0 ESE 9 13 5 7 1026.3 1026.1 0.0
26/12:00pm 16.9 15.1 7.3 53 4.8 E 6 11 3 6 1026.3 1026.1 0.0
26/11:30am 17.0 15.3 7.6 54 4.8 WNW 6 9 3 5 1026.2 1026.0 0.0
26/11:00am 16.3 14.5 7.3 55 4.5 WNW 6 11 3 6 1026.2 1026.0 0.0
26/10:30am 15.4 13.6 7.2 58 4.1 W 6 9 3 5 1026.4 1026.2 0.0
26/10:00am 15.0 13.1 6.6 57 4.1 W 6 13 3 7 1026.3 1026.1 0.0
26/09:30am 14.7 12.7 7.3 61 3.7 WNW 7 13 4 7 1026.2 1026.0 0.0
26/09:00am 14.2 12.7 7.0 62 3.5 NNE 4 9 2 5 1026.0 1025.8 0.0
26/08:30am 13.7 12.3 7.2 65 3.2 NNW 4 17 2 9 1025.9 1025.7 0.0
26/08:00am 12.9 11.3 7.8 71 2.5 WNW 6 9 3 5 1025.7 1025.5 0.0
26/07:30am 12.1 10.2 7.6 74 2.2 NW 7 11 4 6 1025.4 1025.2 0.0
26/07:00am 11.9 10.6 7.6 75 2.1 NNW 4 6 2 3 1025.2 1025.0 0.0
26/06:30am 11.3 9.4 7.6 78 1.8 N 7 11 4 6 1025.0 1024.7 0.0
26/06:00am 11.4 9.2 7.9 79 1.7 NNW 9 15 5 8 1024.8 1024.5 0.0
26/05:30am 12.0 9.1 8.3 78 1.8 NNW 13 22 7 12 1024.8 1024.5 0.0
26/05:00am 12.1 7.3 8.8 80 1.7 N 24 35 13 19 1024.5 1024.2 0.0
26/04:30am 12.1 6.8 8.4 78 1.9 N 26 41 14 22 1024.5 1024.2 0.0
26/04:00am 11.8 7.7 8.5 80 1.6 N 20 30 11 16 1024.9 1024.6 0.0
26/03:30am 11.7 7.0 7.8 77 1.9 N 22 33 12 18 1025.1 1024.8 0.0
26/03:00am 11.1 7.3 7.4 78 1.8 N 17 26 9 14 1025.2 1025.0 0.0
26/02:30am 11.0 8.8 6.4 73 2.2 N 7 11 4 6 1026.0 1025.8 0.0
26/02:00am 11.2 9.2 6.3 72 2.3 NNW 6 9 3 5 1026.1 1025.9 0.0
26/01:30am 10.5 7.5 5.9 73 2.2 N 11 13 6 7 1026.0 1025.8 0.0
26/01:00am 10.9 8.6 5.9 71 2.3 NNW 7 9 4 5 1026.3 1026.1 0.0
26/12:30am 11.5 9.5 6.2 70 2.5 NNW 6 6 3 3 1026.7 1026.5 0.0
26/12:00am 11.5 9.9 6.2 70 2.5 N 4 6 2 3 1027.0 1026.8 0.0
 
Date/Time
EDT
Temp
°C
App
Temp
°C
Dew
Point
°C
Rel
Hum
%
Delta-T
°C
Wind Press
QNH
hPa
Press
MSL
hPa
Rain since
9am
mm
Dir  Spd
km/h
Gust
km/h
Spd
kts
Gust
kts
25/11:30pm 11.4 10.5 5.9 69 2.6 CALM 0 2 0 1 1026.7 1026.5 0.0

Other Formats:

Comma delimited format used in spreadsheet applications
http://www.bom.gov.au/fwo/IDT60801/IDT60801.95986.axf

JavaScript Object Notation format (JSON) in row-major order
http://www.bom.gov.au/fwo/IDT60801/IDT60801.95986.json